West Mersea, United Kingdom
Current Conditions -  °F | °C
As of 2:50 AM on Sunday 28 Dec 2014 (Local Time) from EGMC Reporting Station
Few Clouds Few Clouds  
Wind Chill: 28°   Ceiling: Unl
Heat Index: 36°   Visibility: 6mi
Dew Point: 28°   Wind: 10mph
Humidity: 75%   Direction: 360°N
Pressure: 30.03"   Gusts: NA
Location:  51.78°N, 0.92°E
Report Text: EGMC 280250Z 36009KT 9999 FEW037 02/M02 Q1017
Loading
Personal Weather Stations






























Interactive Weather Map New forecast layout! Learn more

10-Day Weather Forecast

Advertisements
Track Severe Weather on mobile